sensor_id;sensor_type;location;lat;lon;timestamp;temperature;humidity
29363;DHT22;16349;53.672;10.014;2024-01-30T00:00:38;4.50;99.90
29363;DHT22;16349;53.672;10.014;2024-01-30T00:03:05;4.40;99.90
29363;DHT22;16349;53.672;10.014;2024-01-30T00:05:31;4.40;99.90
29363;DHT22;16349;53.672;10.014;2024-01-30T00:07:58;4.40;99.90
29363;DHT22;16349;53.672;10.014;2024-01-30T00:10:25;4.40;99.90
29363;DHT22;16349;53.672;10.014;2024-01-30T00:12:52;4.30;99.90
29363;DHT22;16349;53.672;10.014;2024-01-30T00:15:19;4.30;99.90
29363;DHT22;16349;53.672;10.014;2024-01-30T00:17:47;4.30;99.90
29363;DHT22;16349;53.672;10.014;2024-01-30T00:20:14;4.20;99.90
29363;DHT22;16349;53.672;10.014;2024-01-30T00:22:41;4.20;99.90
29363;DHT22;16349;53.672;10.014;2024-01-30T00:25:08;4.20;99.90
29363;DHT22;16349;53.672;10.014;2024-01-30T00:27:35;4.20;99.90
29363;DHT22;16349;53.672;10.014;2024-01-30T00:30:02;4.20;99.90
29363;DHT22;16349;53.672;10.014;2024-01-30T00:32:30;4.20;99.90
29363;DHT22;16349;53.672;10.014;2024-01-30T00:34:58;4.20;99.90
29363;DHT22;16349;53.672;10.014;2024-01-30T00:37:25;4.20;99.90
29363;DHT22;16349;53.672;10.014;2024-01-30T00:39:52;4.20;99.90
29363;DHT22;16349;53.672;10.014;2024-01-30T00:42:19;4.20;99.90
29363;DHT22;16349;53.672;10.014;2024-01-30T00:44:46;4.20;99.90
29363;DHT22;16349;53.672;10.014;2024-01-30T00:47:13;4.20;99.90
29363;DHT22;16349;53.672;10.014;2024-01-30T00:49:40;4.20;99.90
29363;DHT22;16349;53.672;10.014;2024-01-30T00:52:08;4.20;99.90
29363;DHT22;16349;53.672;10.014;2024-01-30T00:54:35;4.20;99.90
29363;DHT22;16349;53.672;10.014;2024-01-30T00:57:02;4.20;99.90
29363;DHT22;16349;53.672;10.014;2024-01-30T00:59:29;4.20;99.90
29363;DHT22;16349;53.672;10.014;2024-01-30T01:01:56;4.20;99.90
29363;DHT22;16349;53.672;10.014;2024-01-30T01:04:23;4.20;99.90
29363;DHT22;16349;53.672;10.014;2024-01-30T01:06:50;4.10;99.90
29363;DHT22;16349;53.672;10.014;2024-01-30T01:09:18;4.10;99.90
29363;DHT22;16349;53.672;10.014;2024-01-30T01:11:45;4.10;99.90
29363;DHT22;16349;53.672;10.014;2024-01-30T01:14:11;4.00;99.90
29363;DHT22;16349;53.672;10.014;2024-01-30T01:16:38;3.90;99.90
29363;DHT22;16349;53.672;10.014;2024-01-30T01:19:07;3.90;99.90
29363;DHT22;16349;53.672;10.014;2024-01-30T01:21:34;3.90;99.90
29363;DHT22;16349;53.672;10.014;2024-01-30T01:24:01;3.90;99.90
29363;DHT22;16349;53.672;10.014;2024-01-30T01:26:29;3.80;99.90
29363;DHT22;16349;53.672;10.014;2024-01-30T01:28:56;3.90;99.90
29363;DHT22;16349;53.672;10.014;2024-01-30T01:31:23;3.90;99.90
29363;DHT22;16349;53.672;10.014;2024-01-30T01:33:50;3.90;99.90
29363;DHT22;16349;53.672;10.014;2024-01-30T01:36:17;3.80;99.90
29363;DHT22;16349;53.672;10.014;2024-01-30T01:38:44;3.90;99.90
29363;DHT22;16349;53.672;10.014;2024-01-30T01:41:10;3.90;99.90
29363;DHT22;16349;53.672;10.014;2024-01-30T01:43:38;3.90;99.90
29363;DHT22;16349;53.672;10.014;2024-01-30T01:46:06;3.90;99.90
29363;DHT22;16349;53.672;10.014;2024-01-30T01:48:33;3.90;99.90
29363;DHT22;16349;53.672;10.014;2024-01-30T01:51:00;3.80;99.90
29363;DHT22;16349;53.672;10.014;2024-01-30T01:53:27;3.80;99.90
29363;DHT22;16349;53.672;10.014;2024-01-30T01:55:54;3.80;99.90
29363;DHT22;16349;53.672;10.014;2024-01-30T01:58:21;3.70;99.90
29363;DHT22;16349;53.672;10.014;2024-01-30T02:00:50;3.70;99.90
29363;DHT22;16349;53.672;10.014;2024-01-30T02:03:18;3.70;99.90
29363;DHT22;16349;53.672;10.014;2024-01-30T02:05:47;3.70;99.90
29363;DHT22;16349;53.672;10.014;2024-01-30T02:08:14;3.70;99.90
29363;DHT22;16349;53.672;10.014;2024-01-30T02:10:40;3.70;99.90
29363;DHT22;16349;53.672;10.014;2024-01-30T02:13:07;3.70;99.90
29363;DHT22;16349;53.672;10.014;2024-01-30T02:15:34;3.70;99.90
29363;DHT22;16349;53.672;10.014;2024-01-30T02:18:02;3.80;99.90
29363;DHT22;16349;53.672;10.014;2024-01-30T02:20:30;3.80;99.90
29363;DHT22;16349;53.672;10.014;2024-01-30T02:22:59;3.80;99.90
29363;DHT22;16349;53.672;10.014;2024-01-30T02:25:31;3.80;99.90
29363;DHT22;16349;53.672;10.014;2024-01-30T02:27:58;3.90;99.90
29363;DHT22;16349;53.672;10.014;2024-01-30T02:30:25;3.90;99.90
29363;DHT22;16349;53.672;10.014;2024-01-30T02:32:51;3.90;99.90
29363;DHT22;16349;53.672;10.014;2024-01-30T02:35:18;3.90;99.90
29363;DHT22;16349;53.672;10.014;2024-01-30T02:37:45;3.90;99.90
29363;DHT22;16349;53.672;10.014;2024-01-30T02:40:13;3.90;99.90
29363;DHT22;16349;53.672;10.014;2024-01-30T02:42:40;3.90;99.90
29363;DHT22;16349;53.672;10.014;2024-01-30T02:45:09;3.90;99.90
29363;DHT22;16349;53.672;10.014;2024-01-30T02:47:36;3.90;99.90
29363;DHT22;16349;53.672;10.014;2024-01-30T02:50:03;3.90;99.90
29363;DHT22;16349;53.672;10.014;2024-01-30T02:52:30;3.80;99.90
29363;DHT22;16349;53.672;10.014;2024-01-30T02:54:57;3.80;99.90
29363;DHT22;16349;53.672;10.014;2024-01-30T02:57:25;3.80;99.90
29363;DHT22;16349;53.672;10.014;2024-01-30T02:59:52;3.80;99.90
29363;DHT22;16349;53.672;10.014;2024-01-30T03:02:18;3.80;99.90
29363;DHT22;16349;53.672;10.014;2024-01-30T03:04:45;3.80;99.90
29363;DHT22;16349;53.672;10.014;2024-01-30T03:07:12;3.80;99.90
29363;DHT22;16349;53.672;10.014;2024-01-30T03:09:41;3.80;99.90
29363;DHT22;16349;53.672;10.014;2024-01-30T03:12:08;3.80;99.90
29363;DHT22;16349;53.672;10.014;2024-01-30T03:14:36;3.70;99.90
29363;DHT22;16349;53.672;10.014;2024-01-30T03:17:03;3.70;99.90
29363;DHT22;16349;53.672;10.014;2024-01-30T03:19:30;3.70;99.90
29363;DHT22;16349;53.672;10.014;2024-01-30T03:21:56;3.70;99.90
29363;DHT22;16349;53.672;10.014;2024-01-30T03:24:23;3.70;99.90
29363;DHT22;16349;53.672;10.014;2024-01-30T03:26:50;3.60;99.90
29363;DHT22;16349;53.672;10.014;2024-01-30T03:29:17;3.50;99.90
29363;DHT22;16349;53.672;10.014;2024-01-30T03:31:46;3.50;99.90
29363;DHT22;16349;53.672;10.014;2024-01-30T03:34:12;3.40;99.90
29363;DHT22;16349;53.672;10.014;2024-01-30T03:36:39;3.40;99.90
29363;DHT22;16349;53.672;10.014;2024-01-30T03:39:07;3.40;99.90
29363;DHT22;16349;53.672;10.014;2024-01-30T03:41:33;3.50;99.90
29363;DHT22;16349;53.672;10.014;2024-01-30T03:44:00;3.40;99.90
29363;DHT22;16349;53.672;10.014;2024-01-30T03:46:27;3.40;99.90
29363;DHT22;16349;53.672;10.014;2024-01-30T03:48:55;3.40;99.90
29363;DHT22;16349;53.672;10.014;2024-01-30T03:51:22;3.40;99.90
29363;DHT22;16349;53.672;10.014;2024-01-30T03:53:49;3.40;99.90
29363;DHT22;16349;53.672;10.014;2024-01-30T03:56:15;3.40;99.90
29363;DHT22;16349;53.672;10.014;2024-01-30T03:58:42;3.40;99.90
29363;DHT22;16349;53.672;10.014;2024-01-30T04:01:13;3.40;99.90
29363;DHT22;16349;53.672;10.014;2024-01-30T04:03:40;3.40;99.90
29363;DHT22;16349;53.672;10.014;2024-01-30T04:06:08;3.40;99.90
29363;DHT22;16349;53.672;10.014;2024-01-30T04:08:35;3.40;99.90
29363;DHT22;16349;53.672;10.014;2024-01-30T04:11:04;3.40;99.90
29363;DHT22;16349;53.672;10.014;2024-01-30T04:13:31;3.40;99.90
29363;DHT22;16349;53.672;10.014;2024-01-30T04:15:59;3.40;99.90
29363;DHT22;16349;53.672;10.014;2024-01-30T04:18:26;3.40;99.90
29363;DHT22;16349;53.672;10.014;2024-01-30T04:20:53;3.40;99.90
29363;DHT22;16349;53.672;10.014;2024-01-30T04:23:22;3.40;99.90
29363;DHT22;16349;53.672;10.014;2024-01-30T04:25:49;3.40;99.90
29363;DHT22;16349;53.672;10.014;2024-01-30T04:28:17;3.40;99.90
29363;DHT22;16349;53.672;10.014;2024-01-30T04:30:43;3.30;99.90
29363;DHT22;16349;53.672;10.014;2024-01-30T04:33:10;3.30;99.90
29363;DHT22;16349;53.672;10.014;2024-01-30T04:35:37;3.20;99.90
29363;DHT22;16349;53.672;10.014;2024-01-30T04:38:04;3.20;99.90
29363;DHT22;16349;53.672;10.014;2024-01-30T04:40:32;3.20;99.90
29363;DHT22;16349;53.672;10.014;2024-01-30T04:42:59;3.20;99.90
29363;DHT22;16349;53.672;10.014;2024-01-30T04:45:26;3.10;99.90
29363;DHT22;16349;53.672;10.014;2024-01-30T04:47:53;3.00;99.90
29363;DHT22;16349;53.672;10.014;2024-01-30T04:50:19;3.00;99.90
29363;DHT22;16349;53.672;10.014;2024-01-30T04:52:46;3.00;99.90
29363;DHT22;16349;53.672;10.014;2024-01-30T04:55:13;3.10;99.90
29363;DHT22;16349;53.672;10.014;2024-01-30T04:57:41;3.10;99.90
29363;DHT22;16349;53.672;10.014;2024-01-30T05:00:09;3.10;99.90
29363;DHT22;16349;53.672;10.014;2024-01-30T05:02:36;3.00;99.90
29363;DHT22;16349;53.672;10.014;2024-01-30T05:05:03;3.00;99.90
29363;DHT22;16349;53.672;10.014;2024-01-30T05:07:30;3.00;99.90
29363;DHT22;16349;53.672;10.014;2024-01-30T05:09:57;3.00;99.90
29363;DHT22;16349;53.672;10.014;2024-01-30T05:12:24;3.10;99.90
29363;DHT22;16349;53.672;10.014;2024-01-30T05:14:52;3.10;99.90
29363;DHT22;16349;53.672;10.014;2024-01-30T05:17:18;3.20;99.90
29363;DHT22;16349;53.672;10.014;2024-01-30T05:19:45;3.20;99.90
29363;DHT22;16349;53.672;10.014;2024-01-30T05:22:12;3.20;99.90
29363;DHT22;16349;53.672;10.014;2024-01-30T05:24:41;3.20;99.90
29363;DHT22;16349;53.672;10.014;2024-01-30T05:27:08;3.20;99.90
29363;DHT22;16349;53.672;10.014;2024-01-30T05:29:35;3.30;99.90
29363;DHT22;16349;53.672;10.014;2024-01-30T05:32:04;3.30;99.90
29363;DHT22;16349;53.672;10.014;2024-01-30T05:34:32;3.30;99.90
29363;DHT22;16349;53.672;10.014;2024-01-30T05:36:58;3.40;99.90
29363;DHT22;16349;53.672;10.014;2024-01-30T05:39:25;3.40;99.90
29363;DHT22;16349;53.672;10.014;2024-01-30T05:41:52;3.50;99.90
29363;DHT22;16349;53.672;10.014;2024-01-30T05:44:19;3.60;99.90
29363;DHT22;16349;53.672;10.014;2024-01-30T05:46:46;3.60;99.90
29363;DHT22;16349;53.672;10.014;2024-01-30T05:49:14;3.60;99.90
29363;DHT22;16349;53.672;10.014;2024-01-30T05:51:41;3.70;99.90
29363;DHT22;16349;53.672;10.014;2024-01-30T05:54:08;3.70;99.90
29363;DHT22;16349;53.672;10.014;2024-01-30T05:56:35;3.80;99.90
29363;DHT22;16349;53.672;10.014;2024-01-30T05:59:00;3.80;99.90
29363;DHT22;16349;53.672;10.014;2024-01-30T06:01:27;3.80;99.90
29363;DHT22;16349;53.672;10.014;2024-01-30T06:03:54;3.80;99.90
29363;DHT22;16349;53.672;10.014;2024-01-30T06:06:23;3.90;99.90
29363;DHT22;16349;53.672;10.014;2024-01-30T06:08:50;3.90;99.90
29363;DHT22;16349;53.672;10.014;2024-01-30T06:11:16;3.90;99.90
29363;DHT22;16349;53.672;10.014;2024-01-30T06:13:43;3.90;99.90
29363;DHT22;16349;53.672;10.014;2024-01-30T06:16:10;3.90;99.90
29363;DHT22;16349;53.672;10.014;2024-01-30T06:18:37;3.90;99.90
29363;DHT22;16349;53.672;10.014;2024-01-30T06:21:05;3.90;99.90
29363;DHT22;16349;53.672;10.014;2024-01-30T06:23:33;3.90;99.90
29363;DHT22;16349;53.672;10.014;2024-01-30T06:26:00;4.00;99.90
29363;DHT22;16349;53.672;10.014;2024-01-30T06:28:27;4.00;99.90
29363;DHT22;16349;53.672;10.014;2024-01-30T06:30:55;4.00;99.90
29363;DHT22;16349;53.672;10.014;2024-01-30T06:33:22;4.10;99.90
29363;DHT22;16349;53.672;10.014;2024-01-30T06:35:49;4.10;99.90
29363;DHT22;16349;53.672;10.014;2024-01-30T06:38:15;4.20;99.90
29363;DHT22;16349;53.672;10.014;2024-01-30T06:40:44;4.20;99.90
29363;DHT22;16349;53.672;10.014;2024-01-30T06:43:10;4.20;99.90
29363;DHT22;16349;53.672;10.014;2024-01-30T06:45:38;4.30;99.90
29363;DHT22;16349;53.672;10.014;2024-01-30T06:48:05;4.30;99.90
29363;DHT22;16349;53.672;10.014;2024-01-30T06:50:32;4.30;99.90
29363;DHT22;16349;53.672;10.014;2024-01-30T06:52:59;4.30;99.90
29363;DHT22;16349;53.672;10.014;2024-01-30T06:55:25;4.30;99.90
29363;DHT22;16349;53.672;10.014;2024-01-30T06:57:54;4.30;99.90
29363;DHT22;16349;53.672;10.014;2024-01-30T07:00:20;4.40;99.90
29363;DHT22;16349;53.672;10.014;2024-01-30T07:02:49;4.40;99.90
29363;DHT22;16349;53.672;10.014;2024-01-30T07:05:16;4.40;99.90
29363;DHT22;16349;53.672;10.014;2024-01-30T07:07:43;4.40;99.90
29363;DHT22;16349;53.672;10.014;2024-01-30T07:10:10;4.40;99.90
29363;DHT22;16349;53.672;10.014;2024-01-30T07:12:37;4.40;99.90
29363;DHT22;16349;53.672;10.014;2024-01-30T07:15:06;4.40;99.90
29363;DHT22;16349;53.672;10.014;2024-01-30T07:17:34;4.40;99.90
29363;DHT22;16349;53.672;10.014;2024-01-30T07:20:01;4.40;99.90
29363;DHT22;16349;53.672;10.014;2024-01-30T07:22:29;4.40;99.90
29363;DHT22;16349;53.672;10.014;2024-01-30T07:24:56;4.40;99.90
29363;DHT22;16349;53.672;10.014;2024-01-30T07:27:23;4.40;99.90
29363;DHT22;16349;53.672;10.014;2024-01-30T07:29:51;4.40;99.90
29363;DHT22;16349;53.672;10.014;2024-01-30T07:32:19;4.40;99.90
29363;DHT22;16349;53.672;10.014;2024-01-30T07:34:46;4.50;99.90
29363;DHT22;16349;53.672;10.014;2024-01-30T07:37:12;4.40;99.90
29363;DHT22;16349;53.672;10.014;2024-01-30T07:39:41;4.40;99.90
29363;DHT22;16349;53.672;10.014;2024-01-30T07:42:08;4.50;99.90
29363;DHT22;16349;53.672;10.014;2024-01-30T07:44:35;4.50;99.90
29363;DHT22;16349;53.672;10.014;2024-01-30T07:47:02;4.50;99.90
29363;DHT22;16349;53.672;10.014;2024-01-30T07:49:30;4.50;99.90
29363;DHT22;16349;53.672;10.014;2024-01-30T07:51:57;4.50;99.90
29363;DHT22;16349;53.672;10.014;2024-01-30T07:54:33;4.50;99.90
29363;DHT22;16349;53.672;10.014;2024-01-30T08:03:54;4.60;99.90
29363;DHT22;16349;53.672;10.014;2024-01-30T08:06:22;4.60;99.90
29363;DHT22;16349;53.672;10.014;2024-01-30T08:08:49;4.60;99.90
29363;DHT22;16349;53.672;10.014;2024-01-30T08:11:20;4.60;99.90
29363;DHT22;16349;53.672;10.014;2024-01-30T08:13:51;4.70;99.90
29363;DHT22;16349;53.672;10.014;2024-01-30T08:16:17;4.80;99.90
29363;DHT22;16349;53.672;10.014;2024-01-30T08:18:44;4.80;99.90
29363;DHT22;16349;53.672;10.014;2024-01-30T08:21:11;4.80;99.90
29363;DHT22;16349;53.672;10.014;2024-01-30T08:23:39;4.80;99.90
29363;DHT22;16349;53.672;10.014;2024-01-30T08:26:06;4.90;99.90
29363;DHT22;16349;53.672;10.014;2024-01-30T08:28:33;5.00;99.90
29363;DHT22;16349;53.672;10.014;2024-01-30T08:31:00;5.00;99.90
29363;DHT22;16349;53.672;10.014;2024-01-30T08:33:27;5.00;99.90
29363;DHT22;16349;53.672;10.014;2024-01-30T08:35:54;5.10;99.90
29363;DHT22;16349;53.672;10.014;2024-01-30T08:38:20;5.10;99.90
29363;DHT22;16349;53.672;10.014;2024-01-30T08:40:49;5.20;99.90
29363;DHT22;16349;53.672;10.014;2024-01-30T08:43:16;5.30;99.90
29363;DHT22;16349;53.672;10.014;2024-01-30T08:45:43;5.30;99.90
29363;DHT22;16349;53.672;10.014;2024-01-30T08:48:10;5.40;99.90
29363;DHT22;16349;53.672;10.014;2024-01-30T08:50:36;5.50;99.90
29363;DHT22;16349;53.672;10.014;2024-01-30T08:53:03;5.50;99.90
29363;DHT22;16349;53.672;10.014;2024-01-30T08:55:30;5.50;99.90
29363;DHT22;16349;53.672;10.014;2024-01-30T08:57:58;5.60;99.90
29363;DHT22;16349;53.672;10.014;2024-01-30T09:00:25;5.60;99.90
29363;DHT22;16349;53.672;10.014;2024-01-30T09:02:52;5.60;99.90
29363;DHT22;16349;53.672;10.014;2024-01-30T09:05:19;5.70;99.90
29363;DHT22;16349;53.672;10.014;2024-01-30T09:07:46;5.70;99.90
29363;DHT22;16349;53.672;10.014;2024-01-30T09:10:13;5.80;99.90
29363;DHT22;16349;53.672;10.014;2024-01-30T09:12:40;5.90;99.90
29363;DHT22;16349;53.672;10.014;2024-01-30T09:15:09;5.90;99.90
29363;DHT22;16349;53.672;10.014;2024-01-30T09:17:36;6.00;99.90
29363;DHT22;16349;53.672;10.014;2024-01-30T09:20:03;6.00;99.90
29363;DHT22;16349;53.672;10.014;2024-01-30T09:22:30;6.10;99.90
29363;DHT22;16349;53.672;10.014;2024-01-30T09:24:57;6.10;99.90
29363;DHT22;16349;53.672;10.014;2024-01-30T09:27:24;6.20;99.90
29363;DHT22;16349;53.672;10.014;2024-01-30T09:29:50;6.30;99.90
29363;DHT22;16349;53.672;10.014;2024-01-30T09:32:19;6.30;99.90
29363;DHT22;16349;53.672;10.014;2024-01-30T09:34:45;6.40;99.90
29363;DHT22;16349;53.672;10.014;2024-01-30T09:37:13;6.40;99.90
29363;DHT22;16349;53.672;10.014;2024-01-30T09:39:41;6.50;99.90
29363;DHT22;16349;53.672;10.014;2024-01-30T09:42:14;6.60;99.90
29363;DHT22;16349;53.672;10.014;2024-01-30T09:44:43;6.60;99.90
29363;DHT22;16349;53.672;10.014;2024-01-30T09:47:10;6.60;99.90
29363;DHT22;16349;53.672;10.014;2024-01-30T09:49:40;6.70;99.90
29363;DHT22;16349;53.672;10.014;2024-01-30T09:52:08;6.70;99.90
29363;DHT22;16349;53.672;10.014;2024-01-30T09:54:35;6.70;99.90
29363;DHT22;16349;53.672;10.014;2024-01-30T09:57:03;6.80;99.90
29363;DHT22;16349;53.672;10.014;2024-01-30T09:59:30;6.80;99.90
29363;DHT22;16349;53.672;10.014;2024-01-30T10:01:57;6.90;99.90
29363;DHT22;16349;53.672;10.014;2024-01-30T10:04:24;6.90;99.90
29363;DHT22;16349;53.672;10.014;2024-01-30T10:06:52;7.00;99.90
29363;DHT22;16349;53.672;10.014;2024-01-30T10:09:19;7.10;99.90
29363;DHT22;16349;53.672;10.014;2024-01-30T10:11:48;7.10;99.90
29363;DHT22;16349;53.672;10.014;2024-01-30T10:14:16;7.20;99.90
29363;DHT22;16349;53.672;10.014;2024-01-30T10:16:42;7.30;99.90
29363;DHT22;16349;53.672;10.014;2024-01-30T10:19:11;7.30;99.90
29363;DHT22;16349;53.672;10.014;2024-01-30T10:21:37;7.40;99.90
29363;DHT22;16349;53.672;10.014;2024-01-30T10:24:06;7.40;99.90
29363;DHT22;16349;53.672;10.014;2024-01-30T10:26:33;7.50;99.90
29363;DHT22;16349;53.672;10.014;2024-01-30T10:29:00;7.50;99.90
29363;DHT22;16349;53.672;10.014;2024-01-30T10:31:28;7.50;99.90
29363;DHT22;16349;53.672;10.014;2024-01-30T10:33:55;7.60;99.90
29363;DHT22;16349;53.672;10.014;2024-01-30T10:36:24;7.70;99.90
29363;DHT22;16349;53.672;10.014;2024-01-30T10:38:55;7.70;99.90
29363;DHT22;16349;53.672;10.014;2024-01-30T10:41:26;7.80;99.90
29363;DHT22;16349;53.672;10.014;2024-01-30T10:44:02;7.80;99.90
29363;DHT22;16349;53.672;10.014;2024-01-30T10:46:31;7.90;99.90
29363;DHT22;16349;53.672;10.014;2024-01-30T10:49:00;7.90;99.90
29363;DHT22;16349;53.672;10.014;2024-01-30T10:51:27;8.00;99.90
29363;DHT22;16349;53.672;10.014;2024-01-30T10:53:55;8.00;99.90
29363;DHT22;16349;53.672;10.014;2024-01-30T10:56:23;8.10;99.90
29363;DHT22;16349;53.672;10.014;2024-01-30T10:58:52;8.10;99.90
29363;DHT22;16349;53.672;10.014;2024-01-30T11:01:20;8.20;99.90
29363;DHT22;16349;53.672;10.014;2024-01-30T11:03:49;8.30;99.90
29363;DHT22;16349;53.672;10.014;2024-01-30T11:06:16;8.30;99.90
29363;DHT22;16349;53.672;10.014;2024-01-30T11:08:45;8.40;99.90
29363;DHT22;16349;53.672;10.014;2024-01-30T11:11:12;8.40;99.90
29363;DHT22;16349;53.672;10.014;2024-01-30T11:13:40;8.50;99.90
29363;DHT22;16349;53.672;10.014;2024-01-30T11:16:11;8.50;99.90
29363;DHT22;16349;53.672;10.014;2024-01-30T11:18:38;8.50;99.90
29363;DHT22;16349;53.672;10.014;2024-01-30T11:21:05;8.60;99.90
29363;DHT22;16349;53.672;10.014;2024-01-30T11:23:34;8.60;99.90
29363;DHT22;16349;53.672;10.014;2024-01-30T11:26:00;8.60;99.90
29363;DHT22;16349;53.672;10.014;2024-01-30T11:28:32;8.70;99.90
29363;DHT22;16349;53.672;10.014;2024-01-30T11:31:04;8.70;99.90
29363;DHT22;16349;53.672;10.014;2024-01-30T11:33:32;8.70;99.90
29363;DHT22;16349;53.672;10.014;2024-01-30T11:36:00;8.70;99.90
29363;DHT22;16349;53.672;10.014;2024-01-30T11:38:28;8.70;99.90
29363;DHT22;16349;53.672;10.014;2024-01-30T11:40:55;8.80;99.90
29363;DHT22;16349;53.672;10.014;2024-01-30T11:43:22;8.80;99.90
29363;DHT22;16349;53.672;10.014;2024-01-30T11:45:49;8.80;99.90
29363;DHT22;16349;53.672;10.014;2024-01-30T11:48:16;8.70;99.90
29363;DHT22;16349;53.672;10.014;2024-01-30T11:50:44;8.70;99.90
29363;DHT22;16349;53.672;10.014;2024-01-30T11:53:11;8.70;99.90
29363;DHT22;16349;53.672;10.014;2024-01-30T11:55:38;8.70;99.90
29363;DHT22;16349;53.672;10.014;2024-01-30T11:58:05;8.80;99.90
29363;DHT22;16349;53.672;10.014;2024-01-30T12:00:32;8.80;99.90
29363;DHT22;16349;53.672;10.014;2024-01-30T12:02:59;8.80;99.90
29363;DHT22;16349;53.672;10.014;2024-01-30T12:05:27;8.80;99.90
29363;DHT22;16349;53.672;10.014;2024-01-30T12:07:56;8.80;99.90
29363;DHT22;16349;53.672;10.014;2024-01-30T12:10:24;8.80;99.90
29363;DHT22;16349;53.672;10.014;2024-01-30T12:12:52;8.80;99.90
29363;DHT22;16349;53.672;10.014;2024-01-30T12:15:21;8.80;99.90
29363;DHT22;16349;53.672;10.014;2024-01-30T12:17:49;8.90;99.90
29363;DHT22;16349;53.672;10.014;2024-01-30T12:20:18;8.90;99.90
29363;DHT22;16349;53.672;10.014;2024-01-30T12:22:46;8.90;99.90
29363;DHT22;16349;53.672;10.014;2024-01-30T12:25:15;8.90;99.90
29363;DHT22;16349;53.672;10.014;2024-01-30T12:27:44;8.90;99.90
29363;DHT22;16349;53.672;10.014;2024-01-30T12:30:12;8.90;99.90
29363;DHT22;16349;53.672;10.014;2024-01-30T12:32:40;8.90;99.90
29363;DHT22;16349;53.672;10.014;2024-01-30T12:35:09;8.90;99.90
29363;DHT22;16349;53.672;10.014;2024-01-30T12:37:36;9.00;99.90
29363;DHT22;16349;53.672;10.014;2024-01-30T12:40:04;9.00;99.90
29363;DHT22;16349;53.672;10.014;2024-01-30T12:42:33;9.10;99.90
29363;DHT22;16349;53.672;10.014;2024-01-30T12:45:00;9.10;99.90
29363;DHT22;16349;53.672;10.014;2024-01-30T12:47:26;9.10;99.90
29363;DHT22;16349;53.672;10.014;2024-01-30T12:49:53;9.20;99.90
29363;DHT22;16349;53.672;10.014;2024-01-30T12:52:21;9.20;99.90
29363;DHT22;16349;53.672;10.014;2024-01-30T12:54:49;9.30;99.90
29363;DHT22;16349;53.672;10.014;2024-01-30T12:57:16;9.30;99.90
29363;DHT22;16349;53.672;10.014;2024-01-30T12:59:45;9.30;99.90
29363;DHT22;16349;53.672;10.014;2024-01-30T13:02:13;9.40;99.90
29363;DHT22;16349;53.672;10.014;2024-01-30T13:04:40;9.40;99.90
29363;DHT22;16349;53.672;10.014;2024-01-30T13:07:07;9.40;99.90
29363;DHT22;16349;53.672;10.014;2024-01-30T13:09:34;9.40;99.90
29363;DHT22;16349;53.672;10.014;2024-01-30T13:12:00;9.50;99.90
29363;DHT22;16349;53.672;10.014;2024-01-30T13:14:27;9.50;99.90
29363;DHT22;16349;53.672;10.014;2024-01-30T13:16:55;9.50;99.90
29363;DHT22;16349;53.672;10.014;2024-01-30T13:19:22;9.50;99.90
29363;DHT22;16349;53.672;10.014;2024-01-30T13:21:50;9.50;99.90
29363;DHT22;16349;53.672;10.014;2024-01-30T13:24:16;9.50;99.90
29363;DHT22;16349;53.672;10.014;2024-01-30T13:26:47;9.60;99.90
29363;DHT22;16349;53.672;10.014;2024-01-30T13:29:13;9.50;99.90
29363;DHT22;16349;53.672;10.014;2024-01-30T13:31:40;9.50;99.90
29363;DHT22;16349;53.672;10.014;2024-01-30T13:34:08;9.60;99.90
29363;DHT22;16349;53.672;10.014;2024-01-30T13:36:35;9.60;99.90
29363;DHT22;16349;53.672;10.014;2024-01-30T13:39:02;9.60;99.90
29363;DHT22;16349;53.672;10.014;2024-01-30T13:41:30;9.60;99.90
29363;DHT22;16349;53.672;10.014;2024-01-30T13:43:57;9.60;99.90
29363;DHT22;16349;53.672;10.014;2024-01-30T13:46:24;9.50;99.90
29363;DHT22;16349;53.672;10.014;2024-01-30T13:48:51;9.50;99.90
29363;DHT22;16349;53.672;10.014;2024-01-30T13:51:20;9.60;99.90
29363;DHT22;16349;53.672;10.014;2024-01-30T13:53:46;9.50;99.90
29363;DHT22;16349;53.672;10.014;2024-01-30T13:56:15;9.50;99.90
29363;DHT22;16349;53.672;10.014;2024-01-30T13:58:42;9.50;99.90
29363;DHT22;16349;53.672;10.014;2024-01-30T14:01:09;9.50;99.90
29363;DHT22;16349;53.672;10.014;2024-01-30T14:03:36;9.50;99.90
29363;DHT22;16349;53.672;10.014;2024-01-30T14:06:03;9.50;99.90
29363;DHT22;16349;53.672;10.014;2024-01-30T14:08:31;9.50;99.90
29363;DHT22;16349;53.672;10.014;2024-01-30T14:10:58;9.50;99.90
29363;DHT22;16349;53.672;10.014;2024-01-30T14:13:25;9.50;99.90
29363;DHT22;16349;53.672;10.014;2024-01-30T14:15:52;9.50;99.90
29363;DHT22;16349;53.672;10.014;2024-01-30T14:18:19;9.50;99.90
29363;DHT22;16349;53.672;10.014;2024-01-30T14:20:46;9.50;99.90
29363;DHT22;16349;53.672;10.014;2024-01-30T14:23:12;9.50;99.90
29363;DHT22;16349;53.672;10.014;2024-01-30T14:25:41;9.50;99.90
29363;DHT22;16349;53.672;10.014;2024-01-30T14:28:08;9.50;99.90
29363;DHT22;16349;53.672;10.014;2024-01-30T14:30:34;9.60;99.90
29363;DHT22;16349;53.672;10.014;2024-01-30T14:33:02;9.60;99.90
29363;DHT22;16349;53.672;10.014;2024-01-30T14:35:28;9.60;99.90
29363;DHT22;16349;53.672;10.014;2024-01-30T14:37:55;9.60;99.90
29363;DHT22;16349;53.672;10.014;2024-01-30T14:40:22;9.60;99.90
29363;DHT22;16349;53.672;10.014;2024-01-30T14:42:50;9.60;99.90
29363;DHT22;16349;53.672;10.014;2024-01-30T14:45:17;9.60;99.90
29363;DHT22;16349;53.672;10.014;2024-01-30T14:47:44;9.60;99.90
29363;DHT22;16349;53.672;10.014;2024-01-30T14:50:11;9.60;99.90
29363;DHT22;16349;53.672;10.014;2024-01-30T14:52:38;9.60;99.90
29363;DHT22;16349;53.672;10.014;2024-01-30T14:55:06;9.60;99.90
29363;DHT22;16349;53.672;10.014;2024-01-30T14:57:33;9.60;99.90
29363;DHT22;16349;53.672;10.014;2024-01-30T15:00:03;9.60;99.90
29363;DHT22;16349;53.672;10.014;2024-01-30T15:02:30;9.70;99.90
29363;DHT22;16349;53.672;10.014;2024-01-30T15:04:57;9.70;99.90
29363;DHT22;16349;53.672;10.014;2024-01-30T15:07:24;9.70;99.90
29363;DHT22;16349;53.672;10.014;2024-01-30T15:09:51;9.70;99.90
29363;DHT22;16349;53.672;10.014;2024-01-30T15:12:18;9.70;99.90
29363;DHT22;16349;53.672;10.014;2024-01-30T15:14:44;9.70;99.90
29363;DHT22;16349;53.672;10.014;2024-01-30T15:17:17;9.70;99.90
29363;DHT22;16349;53.672;10.014;2024-01-30T15:19:44;9.70;99.90
29363;DHT22;16349;53.672;10.014;2024-01-30T15:22:11;9.80;99.90
29363;DHT22;16349;53.672;10.014;2024-01-30T15:24:39;9.80;99.90
29363;DHT22;16349;53.672;10.014;2024-01-30T15:27:05;9.80;99.90
29363;DHT22;16349;53.672;10.014;2024-01-30T15:29:33;9.80;99.90
29363;DHT22;16349;53.672;10.014;2024-01-30T15:31:59;9.80;99.90
29363;DHT22;16349;53.672;10.014;2024-01-30T15:34:28;9.80;99.90
29363;DHT22;16349;53.672;10.014;2024-01-30T15:36:55;9.80;99.90